Observations for CHRISTCHURCH IN, New Zealand (NZCH)

NZCH 221430Z AUTO 07010KT 9999 OVC007/// 13/12 Q1021 NOSIG  
NZCH 221400Z AUTO 07009KT 9999 OVC007/// 13/12 Q1021 NOSIG  
NZCH 221330Z AUTO 07009KT 9999 OVC007/// 13/12 Q1021 NOSIG  
NZCH 221300Z AUTO 07010KT 9999 OVC007/// 13/12 Q1022 NOSIG  
NZCH 221230Z AUTO 07009KT 9999 OVC007/// 13/12 Q1022 NOSIG  
NZCH 221200Z AUTO 07011KT 9999 OVC007/// 13/12 Q1022 NOSIG  
NZCH 221130Z AUTO 07013KT 9999 OVC006/// 13/11 Q1022 BECMG VRB02KT  
NZCH 221100Z AUTO 08011KT 9999 OVC007/// 13/12 Q1023 BECMG VRB02KT  
NZCH 221100Z AUTO 08011KT 9999 OVC007/// 13/12 Q1023 BECMG FM1100 VRB02KT
NZCH 221030Z AUTO 06013KT 9999 OVC007/// 13/12 Q1023 BECMG FM1100 VRB02KT   
NZCH 221000Z AUTO 07014KT 9999 OVC008/// 14/12 Q1023 NOSIG  
NZCH 220930Z AUTO 07015KT 9999 OVC008/// 14/12 Q1023 NOSIG  
NZCH 220900Z AUTO 07015KT 9999 OVC008/// 14/12 Q1023 NOSIG  
NZCH 220830Z AUTO 07014KT 9999 OVC009/// 14/12 Q1023 NOSIG  
NZCH 220800Z AUTO 07014KT 9999 BKN009/// 13/12 Q1022 NOSIG  
NZCH 220730Z AUTO 07012KT 9999 NCD 14/12 Q1022 NOSIG
NZCH 220700Z AUTO 07015KT 9999 NCD 14/12 Q1022 NOSIG
NZCH 220630Z AUTO 07015KT 9999 NCD 14/12 Q1022 NOSIG
NZCH 220600Z AUTO 08012KT 9999 NCD 15/12 Q1022 NOSIG
NZCH 220530Z AUTO 08015KT 9999 NCD 16/12 Q1022 NOSIG
NZCH 220500Z AUTO 08014KT 9999 NCD 16/12 Q1022 NOSIG
NZCH 220430Z AUTO 08015KT 9999 NCD 16/12 Q1022 NOSIG
NZCH 220400Z AUTO 08015KT 050V110 9999 NCD 17/12 Q1022 NOSIG
NZCH 220330Z AUTO 09015KT 9999 NCD 17/12 Q1022 NOSIG
NZCH 220300Z AUTO 09016KT 9999 NCD 17/12 Q1022 NOSIG
NZCH 220230Z AUTO 09014KT 9999 NCD 17/12 Q1023 NOSIG
NZCH 220200Z AUTO 08014KT 040V110 9999 NCD 18/12 Q1023 NOSIG
NZCH 220130Z AUTO 08012KT 050V110 9999 NCD 18/13 Q1023 NOSIG
NZCH 220100Z AUTO 08011KT 9999 NCD 18/13 Q1023 NOSIG
NZCH 220030Z AUTO 08011KT 9999 NCD 19/12 Q1024 NOSIG
NZCH 220000Z AUTO 08011KT 050V120 9999 NCD 18/11 Q1024 NOSIG
NZCH 212330Z AUTO 09010KT 9999 NCD 18/12 Q1024 NOSIG
NZCH 212300Z AUTO 08010KT 050V110 9999 NCD 18/12 Q1024 NOSIG
NZCH 212230Z AUTO 08008KT 050V120 9999 NCD 19/11 Q1024 NOSIG
NZCH 212200Z AUTO 08009KT 060V120 9999 NCD 19/11 Q1024 NOSIG
NZCH 212130Z AUTO 07006KT 030V110 9999 NCD 17/13 Q1025 NOSIG
NZCH 212100Z AUTO 04004KT 320V090 9999 FEW005/// 15/12 Q1025 NOSIG  
NZCH 212030Z AUTO 03004KT 340V070 7000 BKN004/// 13/13 Q1025 BECMG TL2200 9999 SCT004   
NZCH 212000Z AUTO 34004KT 2300 BR OVC003/// 12/12 Q1025 NOSIG   
NZCH 211930Z AUTO 34004KT 0300 R02/0650N R20/1000U FG VV002 12/12 Q1025 NOSIG   
NZCH 211900Z AUTO 32003KT 0250 R02/0550N R20/0700N FG VV002 11/11 Q1025 NOSIG   
NZCH 211830Z AUTO 31003KT 9000 OVC003/// 10/09 Q1025 NOSIG  
NZCH 211800Z AUTO 30002KT 9999 FEW006/// 06/06 Q1025 NOSIG  
NZCH 211730Z AUTO 32003KT 9999 NCD 07/06 Q1024 NOSIG
NZCH 211700Z AUTO 30002KT 9999 NCD 08/07 Q1024 NOSIG
NZCH 211630Z AUTO 26002KT 9999 NCD 08/07 Q1024 TEMPO 0500 FG
NZCH 211600Z AUTO 27001KT 9999 NCD 07/06 Q1024 TEMPO 0500 FG
NZCH 211530Z AUTO 24001KT 9999 NCD 07/07 Q1024 TEMPO 0500 FG
NZCH 211500Z AUTO 34003KT 9999 NCD 10/09 Q1024 BECMG 0500 FG
NZCH 211430Z AUTO 01003KT 9999 NCD 11/09 Q1024 NOSIG
NZCH 211400Z AUTO 36003KT 9999 NCD 10/09 Q1024 NOSIG